createdAt,value
2022-08-21T06:14:03.650Z,7.57
2022-08-21T06:24:03.465Z,5.36
2022-08-21T06:34:03.536Z,5.33
2022-08-21T06:44:03.551Z,6.28
2022-08-21T06:54:03.438Z,4.67
2022-08-21T07:04:03.576Z,3.40
2022-08-21T07:14:03.718Z,4.40
2022-08-21T07:24:03.554Z,3.31
2022-08-21T07:34:03.733Z,2.74
2022-08-21T07:44:03.714Z,5.30
2022-08-21T07:54:03.716Z,4.33
2022-08-21T08:04:03.621Z,5.33
2022-08-21T08:14:03.628Z,3.19
2022-08-21T08:24:19.374Z,0.00
2022-08-21T08:34:03.924Z,0.00
2022-08-21T08:44:03.814Z,0.00
2022-08-21T08:54:03.714Z,0.00
2022-08-21T09:04:03.920Z,0.00
2022-08-21T09:14:03.663Z,0.00
2022-08-21T09:24:03.685Z,0.00
2022-08-21T09:34:03.864Z,0.00
2022-08-21T09:44:03.674Z,0.00
2022-08-21T09:54:03.695Z,0.00
2022-08-21T10:04:03.633Z,0.00
2022-08-21T10:14:03.936Z,0.00
2022-08-21T10:24:03.906Z,0.00
2022-08-21T10:34:03.831Z,0.00
2022-08-21T10:44:03.950Z,0.00
2022-08-21T10:54:03.814Z,0.00
2022-08-21T11:04:03.864Z,0.00
2022-08-21T11:14:03.892Z,0.00
2022-08-21T11:24:04.045Z,0.00
2022-08-21T11:34:03.972Z,0.00
2022-08-21T11:44:03.958Z,0.00
2022-08-21T11:54:03.915Z,0.00
2022-08-21T12:04:04.216Z,0.00
2022-08-21T12:14:04.273Z,0.00
2022-08-21T12:24:03.861Z,0.00
2022-08-21T12:34:03.923Z,0.00
2022-08-21T12:44:03.963Z,0.00
2022-08-21T12:54:03.944Z,0.00
2022-08-21T13:04:04.422Z,0.00
2022-08-21T13:14:04.675Z,0.00
2022-08-21T13:24:14.857Z,0.00
2022-08-21T13:34:04.146Z,0.00
2022-08-21T13:44:04.132Z,0.00
2022-08-21T13:54:04.003Z,0.00
2022-08-21T14:04:03.896Z,0.00
2022-08-21T14:14:04.109Z,0.00
2022-08-21T14:24:04.426Z,0.00
2022-08-21T14:34:04.166Z,0.00
2022-08-21T14:44:09.286Z,0.00
2022-08-21T14:54:04.140Z,0.00
2022-08-21T15:04:04.029Z,0.00
2022-08-21T15:14:04.148Z,0.00
2022-08-21T15:24:04.174Z,0.00
2022-08-21T15:34:04.390Z,0.00
2022-08-21T15:44:04.294Z,0.00
2022-08-21T15:54:04.503Z,0.00
2022-08-21T16:04:04.683Z,0.00
2022-08-21T16:14:04.531Z,0.00
2022-08-21T16:24:04.810Z,0.00
2022-08-21T16:34:04.630Z,0.00
2022-08-21T16:44:04.610Z,0.00
2022-08-21T16:54:05.048Z,0.00
2022-08-21T17:04:04.729Z,0.00
2022-08-21T17:14:04.504Z,0.00
2022-08-21T17:24:04.574Z,0.00
2022-08-21T17:34:04.552Z,0.00
2022-08-21T17:44:04.826Z,0.00
2022-08-21T17:54:04.687Z,0.00
2022-08-21T18:04:04.888Z,0.64
2022-08-21T18:14:07.660Z,1.13
2022-08-21T18:24:04.634Z,0.00
2022-08-21T18:34:04.797Z,0.00
2022-08-21T18:44:04.635Z,0.00
2022-08-21T18:54:04.605Z,0.89
2022-08-21T19:04:04.607Z,1.15
2022-08-21T19:14:04.896Z,0.28
